createdAt,value
2023-07-24T00:02:05.510Z,97026.48
2023-07-24T00:04:36.781Z,97025.10
2023-07-24T00:07:08.131Z,97021.79
2023-07-24T00:09:39.039Z,97020.42
2023-07-24T00:12:11.252Z,97017.58
2023-07-24T00:14:42.281Z,97015.25
2023-07-24T00:17:13.390Z,97021.53
2023-07-24T00:19:44.558Z,97033.65
2023-07-24T00:22:15.895Z,97032.05
2023-07-24T00:24:47.438Z,97030.21
2023-07-24T00:27:18.523Z,97031.55
2023-07-24T00:29:49.984Z,97033.80
2023-07-24T00:32:21.132Z,97030.55
2023-07-24T00:34:52.469Z,97026.98
2023-07-24T00:37:23.491Z,97026.60
2023-07-24T00:39:54.562Z,97028.87
2023-07-24T00:42:25.724Z,97030.28
2023-07-24T00:44:56.677Z,97029.17
2023-07-24T00:47:29.547Z,97028.02
2023-07-24T00:50:00.964Z,97032.19
2023-07-24T00:52:33.565Z,97031.58
2023-07-24T00:55:05.102Z,97032.81
2023-07-24T00:57:36.743Z,97036.17
2023-07-24T01:00:09.584Z,97032.59
2023-07-24T01:02:40.897Z,97024.38
2023-07-24T01:05:13.454Z,97023.02
2023-07-24T01:07:44.784Z,97022.35
2023-07-24T01:10:15.929Z,97024.15
2023-07-24T01:12:53.478Z,97026.46
2023-07-24T01:15:31.965Z,97019.35
2023-07-24T01:18:08.509Z,97021.50
2023-07-24T01:20:44.697Z,97018.88
2023-07-24T01:23:41.743Z,97016.94
2023-07-24T01:26:14.378Z,97015.91
2023-07-24T01:28:45.584Z,97012.41
2023-07-24T01:31:17.926Z,97012.20
2023-07-24T01:33:49.532Z,97007.46
2023-07-24T01:36:22.464Z,97003.67
2023-07-24T01:38:54.672Z,97009.37
2023-07-24T01:41:26.318Z,97003.90
2023-07-24T01:43:57.655Z,97004.58
2023-07-24T01:46:29.421Z,97009.70
2023-07-24T01:49:00.956Z,97007.70
2023-07-24T01:51:33.049Z,97007.94
2023-07-24T01:54:04.061Z,97010.98
2023-07-24T01:56:36.488Z,97011.72
2023-07-24T01:59:08.423Z,97011.51
2023-07-24T02:01:39.539Z,97010.27
2023-07-24T02:04:10.615Z,97012.78
2023-07-24T02:06:41.866Z,97010.23
2023-07-24T02:09:13.964Z,97007.64
2023-07-24T02:11:45.111Z,97006.66
2023-07-24T02:14:17.798Z,97009.26
2023-07-24T02:16:49.091Z,97018.28
2023-07-24T02:19:20.119Z,97018.30
2023-07-24T02:21:51.609Z,97021.81
2023-07-24T02:24:22.824Z,97018.23
2023-07-24T02:26:54.312Z,97021.41
2023-07-24T02:29:25.379Z,97024.34
2023-07-24T02:31:57.283Z,97017.87
2023-07-24T02:34:29.566Z,97015.48
2023-07-24T02:37:00.840Z,97005.60
2023-07-24T02:39:32.362Z,97006.17
2023-07-24T02:42:04.087Z,97000.73
2023-07-24T02:44:36.319Z,96997.60
2023-07-24T02:47:07.944Z,96996.60
2023-07-24T02:49:39.212Z,96993.46
2023-07-24T02:52:10.896Z,96990.05
2023-07-24T02:54:42.008Z,96991.00
2023-07-24T02:57:13.528Z,96995.23
2023-07-24T02:59:44.719Z,96997.42
2023-07-24T03:02:16.796Z,96997.07
2023-07-24T03:04:47.985Z,96995.38
2023-07-24T03:07:19.111Z,96998.02
2023-07-24T03:09:52.748Z,96996.94
2023-07-24T03:12:23.879Z,96995.66
2023-07-24T03:14:55.141Z,96987.34
2023-07-24T03:17:26.480Z,96983.65
2023-07-24T03:19:58.190Z,96985.13
2023-07-24T03:22:29.202Z,96998.08
2023-07-24T03:25:00.251Z,97001.39
2023-07-24T03:27:33.785Z,97002.04
2023-07-24T03:30:05.201Z,97007.17
2023-07-24T03:32:37.203Z,97013.52
2023-07-24T03:35:09.947Z,97015.38
2023-07-24T03:37:41.115Z,97013.70
2023-07-24T03:40:14.964Z,97011.58
2023-07-24T03:42:45.982Z,97014.11
2023-07-24T03:45:16.998Z,97014.00
2023-07-24T03:47:48.261Z,97022.88
2023-07-24T03:50:20.362Z,97021.07
2023-07-24T03:52:51.516Z,97019.34
2023-07-24T03:55:23.616Z,97018.86
2023-07-24T03:57:54.741Z,97021.63
2023-07-24T04:00:26.049Z,97020.36
2023-07-24T04:02:57.757Z,97012.95
2023-07-24T04:05:29.276Z,97010.52
2023-07-24T04:08:00.607Z,97013.66
2023-07-24T04:10:32.157Z,97011.95
2023-07-24T04:13:03.267Z,97003.55
2023-07-24T04:15:34.580Z,97001.36
2023-07-24T04:18:05.891Z,97001.20
2023-07-24T04:20:37.055Z,97003.08
2023-07-24T04:23:08.233Z,97005.77
2023-07-24T04:25:39.636Z,97001.98
2023-07-24T04:28:11.035Z,96999.95
2023-07-24T04:30:42.421Z,96996.54
2023-07-24T04:33:13.791Z,96994.88
2023-07-24T04:35:45.206Z,96995.15
2023-07-24T04:38:16.278Z,96987.16
2023-07-24T04:40:48.975Z,96984.29
2023-07-24T04:43:20.471Z,96975.35
2023-07-24T04:45:51.602Z,96966.20
2023-07-24T04:48:23.273Z,96959.95
2023-07-24T04:50:58.686Z,96960.59
2023-07-24T04:53:30.099Z,96953.36
2023-07-24T04:56:01.372Z,96955.08
2023-07-24T04:58:33.797Z,96944.72
2023-07-24T05:01:07.544Z,96941.25
2023-07-24T05:03:38.531Z,96933.23
2023-07-24T05:06:11.352Z,96931.95
2023-07-24T05:08:42.530Z,96953.30
2023-07-24T05:11:13.754Z,96954.90
2023-07-24T05:13:44.743Z,96961.19
2023-07-24T05:16:15.914Z,96960.85
2023-07-24T05:18:47.011Z,96961.95
2023-07-24T05:21:18.134Z,96956.26
2023-07-24T05:23:51.858Z,96943.67
2023-07-24T05:26:23.250Z,96939.20
2023-07-24T05:28:54.920Z,96933.38
2023-07-24T05:31:26.204Z,96936.25
2023-07-24T05:33:57.338Z,96931.83
2023-07-24T05:36:28.977Z,96928.02
2023-07-24T05:39:03.336Z,96928.64
2023-07-24T05:41:34.375Z,96926.39
2023-07-24T05:44:05.788Z,96917.03
2023-07-24T05:46:37.486Z,96902.98
2023-07-24T05:49:08.616Z,96895.56
2023-07-24T05:51:39.643Z,96899.39
2023-07-24T05:54:10.664Z,96906.23
2023-07-24T05:56:41.689Z,96903.95
2023-07-24T05:59:12.803Z,96905.37
2023-07-24T06:01:44.096Z,96912.45
2023-07-24T06:04:15.433Z,96915.59
2023-07-24T06:06:47.097Z,96915.02
2023-07-24T06:09:19.796Z,96913.38
2023-07-24T06:11:52.696Z,96911.52
2023-07-24T06:14:23.959Z,96908.55
2023-07-24T06:16:55.046Z,96902.45
2023-07-24T06:19:26.500Z,96903.05
2023-07-24T06:21:57.610Z,96901.81
2023-07-24T06:24:28.796Z,96897.41
2023-07-24T06:26:59.850Z,96891.20
2023-07-24T06:29:31.040Z,96889.69
2023-07-24T06:32:02.189Z,96893.23
2023-07-24T06:34:33.317Z,96894.15
2023-07-24T06:37:20.592Z,96898.45
2023-07-24T06:39:53.622Z,96890.09
2023-07-24T06:42:25.010Z,96884.33
2023-07-24T06:44:56.099Z,96889.05
2023-07-24T06:47:27.268Z,96888.64
2023-07-24T06:49:58.722Z,96888.70
2023-07-24T06:52:29.973Z,96887.11
2023-07-24T06:55:01.453Z,96884.21
2023-07-24T06:57:33.258Z,96882.85
2023-07-24T07:00:04.533Z,96881.66
2023-07-24T07:02:35.688Z,96883.32
2023-07-24T07:05:07.501Z,96883.73
2023-07-24T07:07:38.570Z,96883.45
2023-07-24T07:10:11.212Z,96878.78
2023-07-24T07:12:42.275Z,96873.39
2023-07-24T07:15:13.851Z,96875.75
2023-07-24T07:17:45.461Z,96879.39
2023-07-24T07:20:16.847Z,96880.64
2023-07-24T07:22:47.828Z,96878.88
2023-07-24T07:25:19.653Z,96889.83
2023-07-24T07:27:50.655Z,96882.72
2023-07-24T07:30:21.842Z,96882.34
2023-07-24T07:32:52.909Z,96885.30
2023-07-24T07:35:24.353Z,96885.84
2023-07-24T07:37:56.233Z,96894.00
2023-07-24T07:40:28.075Z,96896.22
2023-07-24T07:43:13.076Z,96888.61
2023-07-24T07:45:44.116Z,96882.80
2023-07-24T07:48:15.285Z,96891.82
2023-07-24T07:50:46.543Z,96877.02
2023-07-24T07:53:17.577Z,96882.98
2023-07-24T07:55:48.876Z,96899.02
2023-07-24T07:58:19.894Z,96900.65
2023-07-24T08:00:50.853Z,96884.70
2023-07-24T08:03:22.030Z,96866.58
2023-07-24T08:05:53.188Z,96864.25
2023-07-24T08:08:24.274Z,96869.91
2023-07-24T08:10:55.341Z,96870.00
2023-07-24T08:13:26.496Z,96863.88
2023-07-24T08:15:57.642Z,96849.91
2023-07-24T08:18:28.789Z,96851.98
2023-07-24T08:21:00.031Z,96853.19
2023-07-24T08:23:31.054Z,96864.61
2023-07-24T08:26:03.743Z,96870.15
2023-07-24T08:28:35.673Z,96874.19
2023-07-24T08:31:07.567Z,96871.66
2023-07-24T08:33:38.964Z,96871.69
2023-07-24T08:36:12.776Z,96867.37
2023-07-24T08:38:44.662Z,96869.22
2023-07-24T08:41:17.013Z,96873.19
2023-07-24T08:43:48.208Z,96867.13
2023-07-24T08:46:20.362Z,96856.67
2023-07-24T08:48:51.572Z,96850.10
2023-07-24T08:51:23.459Z,96856.17
2023-07-24T08:53:55.024Z,96863.61
2023-07-24T08:56:26.246Z,96881.23
2023-07-24T08:58:57.513Z,96878.39
2023-07-24T09:01:28.689Z,96869.23
2023-07-24T09:04:00.339Z,96858.54
2023-07-24T09:06:32.254Z,96844.92
2023-07-24T09:09:04.499Z,96839.73
2023-07-24T09:11:47.399Z,96829.31
2023-07-24T09:14:26.377Z,96825.73
2023-07-24T09:17:09.159Z,96818.72
2023-07-24T09:19:40.716Z,96813.27
2023-07-24T09:22:16.568Z,96815.30
2023-07-24T09:24:58.333Z,96816.79
2023-07-24T09:27:32.957Z,96808.56
2023-07-24T09:30:13.840Z,96812.57
2023-07-24T09:32:45.107Z,96812.73
2023-07-24T09:35:27.636Z,96815.30
2023-07-24T09:38:07.998Z,96819.47
2023-07-24T09:40:46.405Z,96813.48
2023-07-24T09:45:59.687Z,96810.36
2023-07-24T09:51:05.699Z,96792.92
2023-07-24T09:53:42.843Z,96793.80
2023-07-24T09:56:15.260Z,96792.39
2023-07-24T09:58:50.144Z,96796.48
2023-07-24T10:01:21.578Z,96789.20
2023-07-24T10:03:54.115Z,96789.88
2023-07-24T10:06:26.653Z,96779.15
2023-07-24T10:08:59.159Z,96779.00
2023-07-24T10:11:35.613Z,96780.96
2023-07-24T10:14:07.711Z,96776.73
2023-07-24T10:16:38.785Z,96770.30
2023-07-24T10:19:18.242Z,96771.35
2023-07-24T10:21:53.594Z,96766.52
2023-07-24T10:24:41.212Z,96762.73
2023-07-24T10:27:13.706Z,96759.41
2023-07-24T10:29:48.263Z,96766.46
2023-07-24T10:32:22.894Z,96767.54
2023-07-24T10:35:08.264Z,96769.99
2023-07-24T10:37:40.124Z,96766.94
2023-07-24T10:40:23.286Z,96762.54
2023-07-24T10:43:06.628Z,96760.06
2023-07-24T10:45:48.999Z,96762.48
2023-07-24T10:48:21.453Z,96759.39
2023-07-24T10:50:55.318Z,96753.45
2023-07-24T10:53:27.938Z,96746.98
2023-07-24T10:55:59.095Z,96746.83
2023-07-24T10:58:31.196Z,96739.63
2023-07-24T11:01:03.055Z,96740.44
2023-07-24T11:03:34.667Z,96733.16
2023-07-24T11:06:06.575Z,96731.79
2023-07-24T11:08:38.668Z,96731.38
2023-07-24T11:11:10.020Z,96729.13
2023-07-24T11:13:42.154Z,96728.48
2023-07-24T11:16:13.732Z,96725.03
2023-07-24T11:18:55.100Z,96724.37
2023-07-24T11:21:27.816Z,96717.18
2023-07-24T11:24:00.197Z,96716.02
2023-07-24T11:26:31.316Z,96711.26
2023-07-24T11:29:02.395Z,96702.68
2023-07-24T11:31:40.590Z,96699.00
2023-07-24T11:34:12.735Z,96699.62
2023-07-24T11:36:44.062Z,96698.73
2023-07-24T11:39:16.500Z,96687.44
2023-07-24T11:41:49.408Z,96683.88
2023-07-24T11:44:29.189Z,96679.08
2023-07-24T11:47:06.955Z,96678.22
2023-07-24T11:49:38.495Z,96670.70
2023-07-24T11:52:11.046Z,96667.57
2023-07-24T11:54:42.351Z,96660.47
2023-07-24T11:57:19.679Z,96653.80
2023-07-24T11:59:50.690Z,96648.57
2023-07-24T12:02:22.500Z,96646.86
2023-07-24T12:04:59.991Z,96642.66
2023-07-24T12:07:36.081Z,96633.80
2023-07-24T12:10:06.492Z,96632.42
2023-07-24T12:12:47.557Z,96629.41
2023-07-24T12:15:19.940Z,96623.66
2023-07-24T12:17:51.367Z,96621.59
2023-07-24T12:20:22.724Z,96618.06
2023-07-24T12:22:55.046Z,96616.24
2023-07-24T12:25:26.551Z,96616.91
2023-07-24T12:27:57.591Z,96615.54
2023-07-24T12:30:30.160Z,96608.91
2023-07-24T12:33:01.335Z,96606.54
2023-07-24T12:35:32.849Z,96601.13
2023-07-24T12:38:04.295Z,96598.27
2023-07-24T12:40:35.416Z,96586.36
2023-07-24T12:43:06.655Z,96583.11
2023-07-24T12:45:37.932Z,96581.16
2023-07-24T12:48:09.250Z,96582.54
2023-07-24T12:50:40.347Z,96581.77
2023-07-24T12:53:15.660Z,96569.23
2023-07-24T12:55:53.342Z,96558.77
2023-07-24T12:58:24.472Z,96561.74
2023-07-24T13:00:55.765Z,96559.64
2023-07-24T13:03:27.032Z,96557.47
2023-07-24T13:05:58.316Z,96552.48
2023-07-24T13:08:29.741Z,96547.77
2023-07-24T13:11:01.359Z,96547.85
2023-07-24T13:13:32.928Z,96549.97
2023-07-24T13:16:04.231Z,96547.84
2023-07-24T13:18:35.327Z,96550.12
2023-07-24T13:21:07.605Z,96547.24
2023-07-24T13:23:38.814Z,96544.27
2023-07-24T13:26:11.804Z,96540.91
2023-07-24T13:28:43.097Z,96540.59
2023-07-24T13:31:18.255Z,96528.74
2023-07-24T13:33:49.199Z,96523.21
2023-07-24T13:36:20.340Z,96518.89
2023-07-24T13:38:51.488Z,96510.55
2023-07-24T13:41:22.942Z,96507.81
2023-07-24T13:43:54.098Z,96503.33
2023-07-24T13:46:25.268Z,96496.29
2023-07-24T13:48:56.392Z,96499.42
2023-07-24T13:51:27.629Z,96499.30
2023-07-24T13:53:58.583Z,96500.64
2023-07-24T13:56:30.866Z,96505.31
2023-07-24T13:59:01.944Z,96512.50
2023-07-24T14:01:33.467Z,96517.56
2023-07-24T14:04:04.928Z,96520.98
2023-07-24T14:06:36.121Z,96522.98
2023-07-24T14:09:07.183Z,96523.04
2023-07-24T14:11:38.342Z,96525.20
2023-07-24T14:14:10.187Z,96519.48
2023-07-24T14:16:43.068Z,96507.71
2023-07-24T14:19:14.474Z,96509.81
2023-07-24T14:21:45.368Z,96506.05
2023-07-24T14:24:16.826Z,96504.36
2023-07-24T14:26:48.066Z,96498.20
2023-07-24T14:29:19.319Z,96502.29
2023-07-24T14:31:50.381Z,96499.48
2023-07-24T14:34:21.351Z,96489.96
2023-07-24T14:36:53.943Z,96484.50
2023-07-24T14:39:24.857Z,96477.75
2023-07-24T14:41:56.613Z,96463.86
2023-07-24T14:44:29.225Z,96457.10
2023-07-24T14:47:00.338Z,96449.67
2023-07-24T14:49:31.350Z,96449.83
2023-07-24T14:52:02.332Z,96456.09
2023-07-24T14:54:34.006Z,96462.20
2023-07-24T14:57:19.367Z,96454.71
2023-07-24T14:59:55.958Z,96455.48
2023-07-24T15:02:27.066Z,96457.27
2023-07-24T15:04:58.530Z,96454.34
2023-07-24T15:07:29.604Z,96449.52
2023-07-24T15:10:00.674Z,96458.11
2023-07-24T15:12:33.139Z,96459.01
2023-07-24T15:15:04.341Z,96460.32
2023-07-24T15:17:35.554Z,96465.30
2023-07-24T15:20:09.275Z,96463.95
2023-07-24T15:22:40.181Z,96458.15
2023-07-24T15:25:11.872Z,96477.45
2023-07-24T15:27:42.888Z,96518.45
2023-07-24T15:30:14.497Z,96528.29
2023-07-24T15:32:47.447Z,96484.11
2023-07-24T15:35:18.860Z,96469.50
2023-07-24T15:37:49.956Z,96471.23
2023-07-24T15:41:25.586Z,96480.11
2023-07-24T15:43:56.602Z,96481.21
2023-07-24T15:46:29.820Z,96466.86
2023-07-24T15:49:01.267Z,96450.63
2023-07-24T15:51:33.265Z,96447.54
2023-07-24T15:54:08.242Z,96445.80
2023-07-24T15:56:40.211Z,96443.50
2023-07-24T15:59:11.243Z,96444.96
2023-07-24T16:01:42.563Z,96441.09
2023-07-24T16:04:13.621Z,96428.55
2023-07-24T16:06:44.868Z,96430.83
2023-07-24T16:09:16.173Z,96427.48
2023-07-24T16:11:48.287Z,96432.65
2023-07-24T16:14:19.288Z,96431.05
2023-07-24T16:16:50.513Z,96423.09
2023-07-24T16:19:26.247Z,96416.17
2023-07-24T16:21:58.017Z,96414.55
2023-07-24T16:24:29.167Z,96424.54
2023-07-24T16:27:02.927Z,96418.18
2023-07-24T16:29:35.583Z,96419.09
2023-07-24T16:32:07.474Z,96423.38
2023-07-24T16:34:38.577Z,96426.36
2023-07-24T16:37:10.288Z,96419.02
2023-07-24T16:39:41.543Z,96406.39
2023-07-24T16:42:12.793Z,96404.65
2023-07-24T16:44:43.886Z,96405.66
2023-07-24T16:47:15.013Z,96400.28
2023-07-24T16:49:46.395Z,96393.16
2023-07-24T16:52:17.342Z,96387.38
2023-07-24T16:54:48.471Z,96382.06
2023-07-24T16:57:19.653Z,96375.06
2023-07-24T16:59:51.284Z,96382.36
2023-07-24T17:02:22.393Z,96376.48
2023-07-24T17:04:53.452Z,96379.44
2023-07-24T17:07:24.635Z,96376.07
2023-07-24T17:09:55.737Z,96368.89
2023-07-24T17:12:27.490Z,96361.86
2023-07-24T17:14:58.596Z,96357.26
2023-07-24T17:17:29.603Z,96352.54
2023-07-24T17:20:00.716Z,96346.60
2023-07-24T17:22:33.558Z,96341.80
2023-07-24T17:25:05.158Z,96348.70
2023-07-24T17:27:38.074Z,96348.88
2023-07-24T17:30:10.879Z,96342.52
2023-07-24T17:32:42.019Z,96336.73
2023-07-24T17:35:13.634Z,96330.86
2023-07-24T17:37:44.626Z,96323.95
2023-07-24T17:40:16.224Z,96327.65
2023-07-24T17:42:47.484Z,96334.58
2023-07-24T17:45:19.206Z,96338.89
2023-07-24T17:47:50.414Z,96341.58
2023-07-24T17:50:22.848Z,96333.64
2023-07-24T17:52:54.055Z,96344.44
2023-07-24T17:55:25.204Z,96345.23
2023-07-24T17:57:56.318Z,96342.80
2023-07-24T18:00:28.101Z,96341.84
2023-07-24T18:02:59.647Z,96341.33
2023-07-24T18:05:31.770Z,96339.17
2023-07-24T18:08:02.926Z,96330.42
2023-07-24T18:10:34.204Z,96328.42
2023-07-24T18:13:05.471Z,96327.45
2023-07-24T18:15:37.045Z,96328.50
2023-07-24T18:18:08.183Z,96336.04
2023-07-24T18:20:39.442Z,96335.48
2023-07-24T18:23:10.531Z,96339.09
2023-07-24T18:25:41.963Z,96339.17
2023-07-24T18:28:13.566Z,96339.30
2023-07-24T18:30:44.748Z,96345.61
2023-07-24T18:33:16.081Z,96342.88
2023-07-24T18:35:47.761Z,96345.16
2023-07-24T18:38:18.770Z,96335.69
2023-07-24T18:40:50.266Z,96337.33
2023-07-24T18:43:21.402Z,96338.70
2023-07-24T18:45:52.606Z,96340.08
2023-07-24T18:48:23.867Z,96333.98
2023-07-24T18:50:55.251Z,96329.16
2023-07-24T18:53:26.400Z,96332.75
2023-07-24T18:55:59.343Z,96332.20
2023-07-24T18:58:30.773Z,96330.27
2023-07-24T19:01:03.274Z,96327.54
2023-07-24T19:03:35.137Z,96323.41
2023-07-24T19:06:08.105Z,96324.21
2023-07-24T19:08:39.514Z,96329.27
2023-07-24T19:11:11.168Z,96323.30
2023-07-24T19:13:42.487Z,96329.80
2023-07-24T19:16:13.636Z,96329.83
2023-07-24T19:18:45.066Z,96336.03
2023-07-24T19:21:16.292Z,96333.58
2023-07-24T19:23:47.344Z,96334.79
2023-07-24T19:26:18.402Z,96337.29
2023-07-24T19:28:49.735Z,96336.87
2023-07-24T19:31:20.823Z,96341.78
2023-07-24T19:33:51.894Z,96347.32
2023-07-24T19:36:23.020Z,96343.48
2023-07-24T19:38:54.263Z,96346.33
2023-07-24T19:41:25.588Z,96360.16
2023-07-24T19:43:56.749Z,96369.25
2023-07-24T19:46:27.841Z,96371.37
2023-07-24T19:48:58.933Z,96365.39
2023-07-24T19:51:30.481Z,96361.52
2023-07-24T19:54:02.022Z,96355.45
2023-07-24T19:56:33.288Z,96353.02
2023-07-24T19:59:04.265Z,96352.48
2023-07-24T20:01:35.628Z,96359.92
2023-07-24T20:04:07.535Z,96362.88
2023-07-24T20:06:38.947Z,96362.48
2023-07-24T20:09:10.178Z,96371.86
2023-07-24T20:11:41.275Z,96374.02
2023-07-24T20:14:12.385Z,96380.88
2023-07-24T20:16:43.406Z,96380.42
2023-07-24T20:19:14.725Z,96378.38
2023-07-24T20:21:46.072Z,96382.47
2023-07-24T20:24:17.083Z,96381.41
2023-07-24T20:26:48.320Z,96375.44
2023-07-24T20:29:20.527Z,96377.55
2023-07-24T20:31:51.703Z,96380.55
2023-07-24T20:34:22.866Z,96375.95
2023-07-24T20:36:53.973Z,96379.51
2023-07-24T20:39:25.537Z,96380.73
2023-07-24T20:41:57.364Z,96384.67
2023-07-24T20:44:28.512Z,96382.70
2023-07-24T20:46:59.684Z,96388.61
2023-07-24T20:49:30.857Z,96390.05
2023-07-24T20:52:02.365Z,96385.26
2023-07-24T20:54:33.690Z,96400.52
2023-07-24T20:57:05.265Z,96405.08
2023-07-24T20:59:37.017Z,96408.94
2023-07-24T21:02:08.945Z,96408.05
2023-07-24T21:04:40.062Z,96419.29
2023-07-24T21:07:11.779Z,96423.37
2023-07-24T21:09:43.109Z,96423.89
2023-07-24T21:12:14.147Z,96433.26
2023-07-24T21:14:46.214Z,96435.71
2023-07-24T21:17:17.394Z,96438.17
2023-07-24T21:19:48.556Z,96442.92
2023-07-24T21:22:19.586Z,96441.48
2023-07-24T21:24:50.897Z,96440.65
2023-07-24T21:27:22.046Z,96440.65
2023-07-24T21:29:56.363Z,96440.52
2023-07-24T21:32:27.505Z,96440.14
2023-07-24T21:34:59.482Z,96436.64
2023-07-24T21:37:30.671Z,96436.63
2023-07-24T21:40:01.782Z,96437.00
2023-07-24T21:42:33.418Z,96445.00
2023-07-24T21:45:04.701Z,96448.48
2023-07-24T21:47:35.826Z,96447.73
2023-07-24T21:50:07.862Z,96444.91
2023-07-24T21:52:39.303Z,96447.48
2023-07-24T21:55:11.541Z,96445.25
2023-07-24T21:57:42.535Z,96441.00
2023-07-24T22:00:15.382Z,96442.63
2023-07-24T22:02:47.095Z,96448.34
2023-07-24T22:05:18.652Z,96450.55
2023-07-24T22:07:49.898Z,96449.58
2023-07-24T22:10:21.370Z,96450.67
2023-07-24T22:12:52.509Z,96448.30
2023-07-24T22:15:23.410Z,96445.46
2023-07-24T22:17:54.572Z,96443.59
2023-07-24T22:22:59.626Z,96442.69
2023-07-24T22:25:30.769Z,96442.08
2023-07-24T22:28:01.946Z,96446.95
2023-07-24T22:30:33.040Z,96449.39
2023-07-24T22:33:04.621Z,96450.71
2023-07-24T22:35:36.107Z,96450.67
2023-07-24T22:38:07.332Z,96450.13
2023-07-24T22:40:38.659Z,96449.95
2023-07-24T22:43:09.922Z,96456.09
2023-07-24T22:45:41.033Z,96465.11
2023-07-24T22:48:12.250Z,96470.05
2023-07-24T22:50:43.404Z,96472.98
2023-07-24T22:53:14.697Z,96471.17
2023-07-24T22:55:46.137Z,96471.30
2023-07-24T22:58:17.194Z,96472.75
2023-07-24T23:00:48.797Z,96470.80
2023-07-24T23:03:19.989Z,96467.31
2023-07-24T23:05:51.551Z,96465.14
2023-07-24T23:08:22.641Z,96462.03
2023-07-24T23:10:53.731Z,96458.69
2023-07-24T23:13:25.442Z,96454.31
2023-07-24T23:15:56.425Z,96454.30
2023-07-24T23:18:27.333Z,96459.09
2023-07-24T23:21:04.157Z,96461.08
2023-07-24T23:23:35.309Z,96459.52
2023-07-24T23:26:07.547Z,96451.94
2023-07-24T23:28:38.719Z,96455.95
2023-07-24T23:31:10.339Z,96458.24
2023-07-24T23:33:42.073Z,96457.71
2023-07-24T23:36:13.442Z,96460.73
2023-07-24T23:38:44.464Z,96463.67
2023-07-24T23:41:16.183Z,96455.38
2023-07-24T23:43:47.499Z,96456.30
2023-07-24T23:46:19.408Z,96455.99
2023-07-24T23:48:50.445Z,96460.20
2023-07-24T23:51:23.140Z,96464.55
2023-07-24T23:53:54.411Z,96470.66
2023-07-24T23:56:25.695Z,96475.22
2023-07-24T23:58:56.750Z,96482.14
